Terminal Aerodrome Forecast
Issued by NWS

Home | Current Version | Previous Version | Text Only | Print | Product List | Glossary On
Versions: 1 2 3 4 5 6 7 8 9 10 11 12 13 14 15 16 17 18 19 20 21 22 23
000
FTUS41 KOKX 290500
TAFHPN
TAF
KHPN 290531Z 2906/3006 33009KT P6SM SKC
     FM290900 34005KT P6SM SKC
     FM291400 VRB04KT P6SM SCT150
     FM292100 13008KT P6SM SCT025 BKN100
     FM300200 16005KT P6SM BKN025 BKN050
     FM300400 18005KT 3SM -SN BKN015
      AMD NOT SKED=

USA.gov is the U.S. government's official web portal to all federal, state and local government web resources and services.